Time;durP1;ratioP1;P1;durP2;ratioP2;P2;SDS_P1;SDS_P2;PMS_P1;PMS_P2;Temp;Humidity;BMP_temperature;BMP_pressure;BME280_temperature;BME280_humidity;BME280_pressure;Samples;Min_cycle;Max_cycle;Signal;HPM_P1;HPM_P2
2022/04/20 00:00:40;;;;;;;2.63;1.80;;;9.20;67.60;;;;;;5035396;28;20173;-70
2022/04/20 00:03:06;;;;;;;2.00;1.90;;;9.10;67.90;;;;;;5034766;28;20566;-70
2022/04/20 00:05:33;;;;;;;2.27;2.10;;;9.20;68.30;;;;;;5035131;28;20203;-71
2022/04/20 00:08:03;;;;;;;1.45;1.35;;;9.10;68.90;;;;;;5035075;28;20287;-72
2022/04/20 00:10:29;;;;;;;2.17;2.08;;;9.00;69.90;;;;;;5035297;28;20205;-72
2022/04/20 00:12:56;;;;;;;2.67;2.10;;;8.90;70.40;;;;;;5034829;28;20243;-72
2022/04/20 00:15:22;;;;;;;2.40;2.30;;;8.90;70.30;;;;;;5034682;28;20193;-72
2022/04/20 00:17:48;;;;;;;2.30;2.15;;;8.80;70.60;;;;;;5034730;28;20208;-70
2022/04/20 00:20:14;;;;;;;2.90;2.70;;;8.80;70.80;;;;;;5033592;28;20219;-70
2022/04/20 00:22:39;;;;;;;2.10;2.00;;;8.70;70.70;;;;;;5035013;28;20168;-69
2022/04/20 00:25:05;;;;;;;2.30;2.10;;;8.70;70.80;;;;;;5034564;28;20189;-69
2022/04/20 00:27:35;;;;;;;2.97;2.55;;;8.70;71.20;;;;;;5034519;28;20209;-69
2022/04/20 00:30:08;;;;;;;4.97;2.70;;;8.70;71.70;;;;;;5034828;28;20170;-71
2022/04/20 00:32:34;;;;;;;3.97;2.15;;;8.60;72.10;;;;;;5035069;28;20179;-71
2022/04/20 00:35:00;;;;;;;2.70;2.50;;;8.60;72.60;;;;;;5034078;28;20227;-70
2022/04/20 00:37:26;;;;;;;1.83;1.73;;;8.50;72.70;;;;;;5034325;28;20174;-69
2022/04/20 00:39:52;;;;;;;2.60;2.40;;;8.50;73.20;;;;;;5034599;28;20218;-70
2022/04/20 00:42:22;;;;;;;2.60;2.40;;;8.50;73.60;;;;;;5034486;28;20174;-69
2022/04/20 00:44:49;;;;;;;2.25;2.10;;;8.40;73.80;;;;;;5034166;28;20203;-68
2022/04/20 00:47:16;;;;;;;3.20;3.00;;;8.40;74.00;;;;;;5034152;28;20177;-69
2022/04/20 00:49:45;;;;;;;1.92;1.83;;;8.30;74.20;;;;;;5032476;28;20180;-67
2022/04/20 00:52:11;;;;;;;3.67;2.70;;;8.30;74.70;;;;;;5034223;28;20164;-69
2022/04/20 00:54:37;;;;;;;2.77;2.50;;;8.20;75.00;;;;;;5033708;28;20259;-70
2022/04/20 00:57:03;;;;;;;2.70;2.40;;;8.20;75.30;;;;;;5034075;28;20177;-68
2022/04/20 00:59:30;;;;;;;2.88;2.67;;;8.10;75.80;;;;;;5034240;28;20160;-71
2022/04/20 01:01:56;;;;;;;2.60;2.25;;;8.10;76.20;;;;;;5034187;28;20184;-71
2022/04/20 01:04:22;;;;;;;10.23;2.15;;;8.00;76.50;;;;;;5033516;28;20187;-69
2022/04/20 01:06:51;;;;;;;3.07;2.77;;;8.00;77.00;;;;;;5033710;28;20193;-71
2022/04/20 01:09:17;;;;;;;2.58;2.42;;;7.90;77.30;;;;;;5033905;28;20180;-70
2022/04/20 01:11:44;;;;;;;2.53;2.42;;;7.90;77.50;;;;;;5033914;28;20534;-70
2022/04/20 01:14:10;;;;;;;2.47;1.95;;;7.90;78.10;;;;;;5033517;28;20193;-71
2022/04/20 01:16:36;;;;;;;2.72;2.53;;;7.90;78.40;;;;;;5033467;28;20288;-71
2022/04/20 01:19:02;;;;;;;4.72;2.60;;;7.80;78.70;;;;;;5032648;28;20183;-69
2022/04/20 01:21:29;;;;;;;2.50;2.30;;;7.80;78.90;;;;;;5034035;28;20169;-71
2022/04/20 01:24:00;;;;;;;2.10;1.90;;;7.70;79.30;;;;;;5033669;28;20184;-68
2022/04/20 01:26:28;;;;;;;3.22;2.70;;;7.70;80.30;;;;;;5033866;28;20606;-70
2022/04/20 01:28:58;;;;;;;2.42;2.22;;;7.60;80.30;;;;;;5033635;28;20182;-68
2022/04/20 01:31:23;;;;;;;3.65;2.65;;;7.60;80.70;;;;;;5033332;28;20210;-70
2022/04/20 01:33:50;;;;;;;3.30;2.60;;;7.60;80.90;;;;;;5031929;28;20232;-69
2022/04/20 01:36:16;;;;;;;2.75;2.55;;;7.50;81.00;;;;;;5033669;28;20200;-69
2022/04/20 01:38:41;;;;;;;2.30;2.07;;;7.50;81.60;;;;;;5033350;28;20175;-68
2022/04/20 01:41:07;;;;;;;2.40;2.30;;;7.50;81.80;;;;;;5033963;28;20661;-69
2022/04/20 01:43:33;;;;;;;3.30;2.67;;;7.40;82.20;;;;;;5033197;28;20215;-70
2022/04/20 01:45:58;;;;;;;9.00;3.40;;;7.30;82.80;;;;;;5033523;28;20196;-71
2022/04/20 01:48:24;;;;;;;13.63;2.73;;;7.30;83.10;;;;;;5032149;28;20181;-69
2022/04/20 01:53:33;;;;;;;2.25;2.15;;;7.30;83.60;;;;;;5032992;28;20263;-70
2022/04/20 01:56:00;;;;;;;2.80;2.60;;;7.30;84.00;;;;;;5033334;28;20193;-70
2022/04/20 01:58:26;;;;;;;2.45;2.13;;;7.30;84.20;;;;;;5033204;28;20216;-71
2022/04/20 02:00:52;;;;;;;3.33;2.75;;;7.30;84.40;;;;;;5033387;28;20171;-71
2022/04/20 02:03:17;;;;;;;3.10;2.90;;;7.20;84.70;;;;;;5032755;28;20199;-71
2022/04/20 02:05:43;;;;;;;3.63;2.70;;;7.20;84.80;;;;;;5032644;28;20206;-70
2022/04/20 02:08:09;;;;;;;2.87;2.67;;;7.20;85.20;;;;;;5033055;28;20174;-69
2022/04/20 02:10:35;;;;;;;3.30;2.63;;;7.20;85.60;;;;;;5033272;28;20176;-70
2022/04/20 02:13:00;;;;;;;2.45;2.13;;;7.20;85.80;;;;;;5033095;28;20170;-69
2022/04/20 02:15:27;;;;;;;3.23;2.70;;;7.10;86.20;;;;;;5032928;28;20187;-68
2022/04/20 02:17:53;;;;;;;2.22;2.13;;;7.10;86.50;;;;;;5032762;28;20186;-71
2022/04/20 02:20:18;;;;;;;2.93;1.87;;;7.10;86.80;;;;;;5033278;28;20171;-71
2022/04/20 02:22:44;;;;;;;3.30;2.70;;;7.00;86.70;;;;;;5033111;28;20294;-69
2022/04/20 02:25:09;;;;;;;3.53;2.80;;;7.00;87.10;;;;;;5032698;28;20223;-72
2022/04/20 02:27:35;;;;;;;3.50;3.03;;;6.90;88.30;;;;;;5032663;28;20234;-71
2022/04/20 02:30:02;;;;;;;2.20;2.10;;;6.90;88.50;;;;;;5032947;28;20170;-71
2022/04/20 02:32:27;;;;;;;2.45;2.33;;;6.80;88.90;;;;;;5032901;28;20871;-69
2022/04/20 02:34:53;;;;;;;2.83;2.60;;;6.80;89.50;;;;;;5032391;28;20285;-70
2022/04/20 02:37:19;;;;;;;2.50;2.40;;;6.70;90.00;;;;;;5032397;28;20170;-70
2022/04/20 02:39:44;;;;;;;2.53;2.40;;;6.70;90.10;;;;;;5032646;28;20174;-70
2022/04/20 02:42:10;;;;;;;4.47;3.63;;;6.70;90.20;;;;;;5032577;28;20178;-71
2022/04/20 02:44:38;;;;;;;3.47;2.90;;;6.60;90.70;;;;;;5032232;28;20473;-70
2022/04/20 02:47:04;;;;;;;3.35;3.05;;;6.50;90.90;;;;;;5032615;28;20619;-70
2022/04/20 02:49:29;;;;;;;3.13;2.83;;;6.50;91.10;;;;;;5032564;28;20225;-68
2022/04/20 02:51:55;;;;;;;2.53;1.90;;;6.40;91.40;;;;;;5031046;28;20451;-69
2022/04/20 02:54:21;;;;;;;3.07;2.87;;;6.40;91.40;;;;;;5032246;28;20202;-70
2022/04/20 02:56:47;;;;;;;3.20;3.00;;;6.40;91.50;;;;;;5032475;28;20190;-71
2022/04/20 02:59:13;;;;;;;3.50;3.20;;;6.30;91.60;;;;;;5032632;28;20253;-69
2022/04/20 03:01:38;;;;;;;3.17;2.80;;;6.30;91.80;;;;;;5031293;28;20267;-69
2022/04/20 03:04:04;;;;;;;2.27;2.17;;;6.30;92.00;;;;;;5031649;28;20240;-71
2022/04/20 03:06:30;;;;;;;2.37;2.17;;;6.20;92.20;;;;;;5032402;28;20435;-69
2022/04/20 03:08:56;;;;;;;1.90;1.80;;;6.10;92.50;;;;;;5032424;28;20401;-70
2022/04/20 03:11:22;;;;;;;3.50;3.03;;;6.10;92.60;;;;;;5032233;28;20412;-70
2022/04/20 03:13:48;;;;;;;2.60;2.40;;;6.00;93.10;;;;;;5032674;28;20194;-70
2022/04/20 03:16:14;;;;;;;3.00;2.53;;;5.90;93.40;;;;;;5035970;28;20197;-69
2022/04/20 03:18:40;;;;;;;3.38;3.13;;;5.90;93.70;;;;;;5036046;28;20401;-71
2022/04/20 03:21:06;;;;;;;3.90;3.20;;;5.90;93.90;;;;;;5036193;28;20695;-69
2022/04/20 03:23:32;;;;;;;4.70;2.40;;;5.90;94.10;;;;;;5035175;28;20892;-69
2022/04/20 03:25:57;;;;;;;9.17;3.97;;;6.00;94.40;;;;;;5035795;28;20433;-70
2022/04/20 03:28:23;;;;;;;3.07;2.80;;;5.80;94.40;;;;;;5035851;28;20193;-70
2022/04/20 03:30:50;;;;;;;3.70;3.17;;;5.80;94.70;;;;;;5035781;28;20224;-70
2022/04/20 03:33:16;;;;;;;3.53;3.25;;;5.80;94.90;;;;;;5034933;28;20922;-70
2022/04/20 03:35:42;;;;;;;2.65;2.40;;;5.80;95.20;;;;;;5034381;28;20216;-69
2022/04/20 03:38:08;;;;;;;3.40;3.10;;;5.80;95.20;;;;;;5035637;28;20166;-70
2022/04/20 03:40:34;;;;;;;4.45;4.15;;;5.80;95.20;;;;;;5035814;28;20416;-68
2022/04/20 03:43:01;;;;;;;2.85;2.65;;;5.80;95.20;;;;;;5035205;28;20257;-70
2022/04/20 03:45:26;;;;;;;3.70;3.40;;;5.80;95.50;;;;;;5035280;28;20217;-70
2022/04/20 03:47:52;;;;;;;2.50;2.40;;;5.70;95.50;;;;;;5035487;28;20166;-71
2022/04/20 03:50:18;;;;;;;3.80;3.50;;;5.70;95.70;;;;;;5035442;28;20174;-71
2022/04/20 03:52:44;;;;;;;3.40;3.10;;;5.70;95.90;;;;;;5035039;28;20656;-69
2022/04/20 03:55:10;;;;;;;4.13;3.27;;;5.60;96.10;;;;;;5035056;28;20296;-71
2022/04/20 03:57:35;;;;;;;2.60;2.40;;;5.60;96.40;;;;;;5034999;28;20170;-70
2022/04/20 04:00:02;;;;;;;3.50;3.30;;;5.60;96.80;;;;;;5035538;28;20616;-71
2022/04/20 04:02:28;;;;;;;3.65;3.38;;;5.60;97.30;;;;;;5035347;28;20198;-71
2022/04/20 04:04:53;;;;;;;2.43;2.23;;;5.50;97.50;;;;;;5034868;28;20348;-71
2022/04/20 04:07:19;;;;;;;2.90;2.33;;;5.50;97.90;;;;;;5034235;28;20194;-70
2022/04/20 04:09:45;;;;;;;3.77;3.47;;;5.40;98.30;;;;;;5035426;28;20320;-71
2022/04/20 04:12:10;;;;;;;3.77;3.43;;;5.30;98.60;;;;;;5035222;28;20534;-69
2022/04/20 04:14:40;;;;;;;5.80;3.10;;;5.30;98.70;;;;;;5034541;28;20197;-69
2022/04/20 04:17:06;;;;;;;3.55;3.25;;;5.20;99.10;;;;;;5034610;28;20174;-70
2022/04/20 04:19:33;;;;;;;2.90;2.70;;;5.20;99.20;;;;;;5034997;28;20711;-70
2022/04/20 04:22:00;;;;;;;2.88;2.55;;;5.10;99.90;;;;;;5034755;28;20775;-69
2022/04/20 04:24:34;;;;;;;3.20;3.00;;;5.10;99.90;;;;;;5034350;28;20170;-69
2022/04/20 04:27:02;;;;;;;3.28;3.08;;;5.00;99.90;;;;;;5034849;28;20560;-70
2022/04/20 04:29:28;;;;;;;5.38;4.25;;;4.90;99.90;;;;;;5034751;28;20174;-69
2022/04/20 04:31:54;;;;;;;3.03;2.83;;;4.90;99.90;;;;;;5034935;28;20174;-72
2022/04/20 04:34:20;;;;;;;3.25;2.95;;;4.90;99.90;;;;;;5034184;28;20452;-71
2022/04/20 04:36:46;;;;;;;3.00;2.80;;;5.00;99.90;;;;;;5034257;28;20208;-71
2022/04/20 04:39:13;;;;;;;3.97;3.40;;;5.00;99.90;;;;;;5034683;28;20228;-67
2022/04/20 04:41:39;;;;;;;5.50;3.50;;;5.10;99.90;;;;;;5034528;28;20544;-71
2022/04/20 04:44:05;;;;;;;3.20;2.90;;;5.20;99.90;;;;;;5034122;28;20170;-71
2022/04/20 04:49:15;;;;;;;3.25;2.70;;;5.50;99.90;;;;;;5034560;28;20261;-69
2022/04/20 04:51:41;;;;;;;2.67;2.47;;;5.70;99.90;;;;;;5034353;28;20257;-69
2022/04/20 04:54:07;;;;;;;2.60;2.40;;;5.80;99.90;;;;;;5033748;28;20186;-70
2022/04/20 04:56:33;;;;;;;3.00;2.80;;;5.90;99.90;;;;;;5033912;28;20190;-71
2022/04/20 04:58:59;;;;;;;4.50;3.07;;;6.10;99.90;;;;;;5034555;28;20166;-70
2022/04/20 05:01:25;;;;;;;4.00;3.20;;;6.30;99.90;;;;;;5034245;28;20170;-69
2022/04/20 05:03:53;;;;;;;3.40;3.15;;;6.50;99.90;;;;;;5033678;28;20456;-70
2022/04/20 05:06:19;;;;;;;3.20;2.90;;;6.80;99.90;;;;;;5033643;28;20190;-70
2022/04/20 05:08:45;;;;;;;3.10;2.90;;;7.20;98.90;;;;;;5034239;28;20239;-69
2022/04/20 05:11:10;;;;;;;3.20;3.00;;;7.40;97.70;;;;;;5032613;28;20416;-70
2022/04/20 05:13:36;;;;;;;3.30;3.10;;;7.50;97.10;;;;;;5033526;28;20192;-69
2022/04/20 05:16:02;;;;;;;3.20;2.90;;;7.80;96.70;;;;;;5033911;28;20185;-71
2022/04/20 05:18:28;;;;;;;2.80;2.60;;;8.10;96.30;;;;;;5033576;28;20223;-71
2022/04/20 05:20:53;;;;;;;2.23;2.03;;;8.40;95.00;;;;;;5033804;28;20426;-68
2022/04/20 05:23:19;;;;;;;3.27;2.97;;;8.80;94.10;;;;;;5033240;28;20212;-69
2022/04/20 05:25:44;;;;;;;2.97;2.77;;;9.00;93.30;;;;;;5033652;28;20193;-70
2022/04/20 05:28:10;;;;;;;3.07;2.87;;;9.10;92.90;;;;;;5033764;28;20166;-68
2022/04/20 05:30:36;;;;;;;3.50;3.20;;;9.10;92.90;;;;;;5032577;28;20251;-71
2022/04/20 05:33:03;;;;;;;2.90;2.70;;;9.30;92.40;;;;;;5033259;28;20170;-70
2022/04/20 05:35:28;;;;;;;3.00;2.80;;;9.40;91.00;;;;;;5033280;28;20213;-71
2022/04/20 05:43:22;;;;;;;3.05;2.85;;;9.60;90.80;;;;;;5033175;28;20173;-71
2022/04/20 05:45:50;;;;;;;3.60;3.27;;;9.70;89.90;;;;;;5033465;28;20194;-71
2022/04/20 05:48:16;;;;;;;2.58;2.42;;;9.70;89.30;;;;;;5033513;28;20624;-70
2022/04/20 05:50:43;;;;;;;3.50;3.20;;;9.80;89.30;;;;;;5033444;28;20174;-71
2022/04/20 05:53:09;;;;;;;3.58;3.33;;;9.70;88.80;;;;;;5032705;28;20910;-71
2022/04/20 05:55:34;;;;;;;2.43;2.33;;;9.70;89.40;;;;;;5033422;28;20209;-70
2022/04/20 05:58:00;;;;;;;2.50;2.40;;;9.90;89.80;;;;;;5033292;28;20405;-70
2022/04/20 06:00:26;;;;;;;5.37;3.37;;;10.20;88.20;;;;;;5033332;28;20198;-72
2022/04/20 06:02:54;;;;;;;3.60;3.40;;;10.50;86.20;;;;;;5032851;28;20193;-70
2022/04/20 06:05:20;;;;;;;2.60;2.47;;;10.90;83.60;;;;;;5032696;28;20230;-70
2022/04/20 06:07:47;;;;;;;2.80;2.60;;;11.30;82.90;;;;;;5031955;28;20429;-70
2022/04/20 06:10:12;;;;;;;3.50;3.30;;;11.40;81.40;;;;;;5033236;28;20414;-70
2022/04/20 06:12:38;;;;;;;3.27;2.87;;;11.40;80.10;;;;;;5032775;28;20429;-70
2022/04/20 06:15:06;;;;;;;2.90;2.70;;;11.70;81.40;;;;;;5032981;28;20226;-71
2022/04/20 06:17:32;;;;;;;4.83;3.37;;;11.80;80.20;;;;;;5033408;28;20256;-69
2022/04/20 06:19:57;;;;;;;3.07;2.80;;;11.90;79.00;;;;;;5033345;28;20404;-70
2022/04/20 06:22:23;;;;;;;3.73;3.37;;;11.80;78.80;;;;;;5034886;28;20415;-69
2022/04/20 06:24:49;;;;;;;4.27;3.57;;;11.80;78.90;;;;;;5035897;28;20913;-72
2022/04/20 06:27:15;;;;;;;3.27;3.07;;;11.80;78.70;;;;;;5033370;28;20253;-71
2022/04/20 06:29:41;;;;;;;2.90;2.70;;;11.80;76.90;;;;;;5031744;28;20683;-70
2022/04/20 06:32:07;;;;;;;2.57;2.47;;;11.80;77.20;;;;;;5032911;28;20498;-71
2022/04/20 06:34:33;;;;;;;3.40;3.10;;;11.80;77.10;;;;;;5032264;28;20523;-70
2022/04/20 06:36:58;;;;;;;3.60;3.30;;;11.70;75.50;;;;;;5033117;28;20404;-71
2022/04/20 06:39:24;;;;;;;3.30;3.10;;;11.50;75.70;;;;;;5033511;28;20407;-71
2022/04/20 06:41:51;;;;;;;3.90;3.57;;;11.40;75.90;;;;;;5031333;28;20258;-71
2022/04/20 06:44:17;;;;;;;4.32;3.35;;;11.30;77.00;;;;;;5032302;28;20243;-69
2022/04/20 06:46:43;;;;;;;3.10;2.78;;;11.30;76.90;;;;;;5032390;28;20191;-70
2022/04/20 06:49:09;;;;;;;3.75;3.45;;;11.30;78.20;;;;;;5034697;28;20168;-72
2022/04/20 06:59:48;;;;;;;4.85;3.05;;;10.90;77.50;;;;;;5036367;28;20182;-70
2022/04/20 07:02:15;;;;;;;2.63;2.53;;;11.00;78.40;;;;;;5036386;28;20625;-72
2022/04/20 07:04:41;;;;;;;5.20;2.53;;;11.20;76.90;;;;;;5035842;28;20548;-70
2022/04/20 07:07:07;;;;;;;3.00;2.60;;;11.60;76.00;;;;;;5036284;28;20178;-70
2022/04/20 07:09:32;;;;;;;3.13;2.77;;;11.90;75.10;;;;;;5036286;28;20200;-69
2022/04/20 07:11:58;;;;;;;3.00;2.80;;;12.30;73.80;;;;;;5035996;28;20555;-71
2022/04/20 07:14:24;;;;;;;3.63;3.37;;;12.80;72.20;;;;;;5035746;28;20210;-71
2022/04/20 07:16:49;;;;;;;3.27;2.97;;;13.20;70.70;;;;;;5035950;28;20212;-72
2022/04/20 07:19:15;;;;;;;2.97;2.77;;;13.70;70.10;;;;;;5036197;28;20254;-71
2022/04/20 07:21:40;;;;;;;2.40;2.20;;;14.30;68.10;;;;;;5036168;28;20178;-68
2022/04/20 07:24:06;;;;;;;2.20;2.10;;;14.70;65.50;;;;;;5035227;28;20205;-71
2022/04/20 07:26:31;;;;;;;2.77;2.57;;;15.20;64.30;;;;;;5036023;28;20192;-72
2022/04/20 07:28:57;;;;;;;3.37;3.17;;;15.60;64.20;;;;;;5034625;28;20180;-71
2022/04/20 07:31:23;;;;;;;2.50;2.30;;;15.70;61.00;;;;;;5035933;28;20504;-71
2022/04/20 07:33:49;;;;;;;3.40;2.70;;;15.70;59.90;;;;;;5035109;28;20463;-71
2022/04/20 07:36:14;;;;;;;3.30;3.00;;;16.00;59.70;;;;;;5035657;28;20251;-71
2022/04/20 07:38:40;;;;;;;2.60;2.40;;;16.30;59.40;;;;;;5035941;28;20209;-71
2022/04/20 07:41:06;;;;;;;2.77;2.50;;;16.60;59.00;;;;;;5035427;28;20175;-70
2022/04/20 07:43:32;;;;;;;2.80;2.57;;;16.90;58.20;;;;;;5034879;28;20177;-72
2022/04/20 07:45:58;;;;;;;3.03;2.60;;;17.20;56.80;;;;;;5035457;28;20179;-69
2022/04/20 07:48:24;;;;;;;2.50;2.27;;;17.30;56.50;;;;;;5035489;28;20910;-72
2022/04/20 07:50:49;;;;;;;2.80;2.70;;;17.60;55.60;;;;;;5035328;28;20255;-70
2022/04/20 07:53:15;;;;;;;2.87;2.57;;;17.70;55.50;;;;;;5034455;28;20176;-71
2022/04/20 07:55:46;;;;;;;2.37;2.27;;;17.80;55.50;;;;;;5035341;28;20712;-72
2022/04/20 07:58:12;;;;;;;2.20;2.10;;;18.30;55.20;;;;;;5035420;28;20170;-70
2022/04/20 08:00:38;;;;;;;2.70;2.50;;;18.80;52.50;;;;;;5034954;28;20408;-71
2022/04/20 08:03:17;;;;;;;2.57;2.47;;;18.80;53.10;;;;;;5034757;28;20875;-73
2022/04/20 08:05:48;;;;;;;3.10;2.90;;;19.20;53.20;;;;;;5034585;28;20240;-71
2022/04/20 08:08:13;;;;;;;3.00;2.60;;;19.70;51.70;;;;;;5035023;28;20393;-71
2022/04/20 08:10:39;;;;;;;3.30;2.80;;;19.70;51.30;;;;;;5034781;28;20492;-73
2022/04/20 08:15:49;;;;;;;2.70;2.50;;;19.40;51.70;;;;;;5034801;28;20206;-73
2022/04/20 08:18:16;;;;;;;3.17;2.90;;;19.70;51.70;;;;;;5035051;28;20413;-73
2022/04/20 08:20:41;;;;;;;2.77;2.57;;;19.70;51.10;;;;;;5034770;28;20174;-73
2022/04/20 08:23:07;;;;;;;2.70;2.37;;;19.90;50.80;;;;;;5034130;28;20394;-73
2022/04/20 08:25:33;;;;;;;3.13;2.83;;;20.10;50.70;;;;;;5034784;28;20707;-73
2022/04/20 08:27:58;;;;;;;3.47;3.13;;;20.30;50.40;;;;;;5034765;28;20621;-73
2022/04/20 08:30:24;;;;;;;3.37;3.10;;;20.50;50.70;;;;;;5034536;28;20228;-72
2022/04/20 08:32:50;;;;;;;2.77;2.57;;;20.90;50.70;;;;;;5034128;28;20218;-72
2022/04/20 08:35:15;;;;;;;3.00;2.80;;;21.30;49.90;;;;;;5033868;28;20234;-72
2022/04/20 08:37:41;;;;;;;3.03;2.70;;;21.60;49.60;;;;;;5034431;28;20169;-72
2022/04/20 08:40:08;;;;;;;3.07;2.87;;;21.50;49.60;;;;;;5034648;28;20168;-72
2022/04/20 08:42:34;;;;;;;3.00;2.80;;;21.60;49.40;;;;;;5034164;28;20412;-74
2022/04/20 08:45:04;;;;;;;3.40;2.90;;;21.50;49.60;;;;;;5034008;28;20501;-72
2022/04/20 08:47:36;;;;;;;3.33;3.03;;;22.00;49.30;;;;;;5034616;28;20905;-73
2022/04/20 08:50:02;;;;;;;3.47;3.17;;;22.50;48.60;;;;;;5034751;28;20401;-72
2022/04/20 08:52:37;;;;;;;2.70;2.50;;;22.70;48.80;;;;;;5034226;28;20425;-72
2022/04/20 08:55:05;;;;;;;2.90;2.70;;;23.00;46.90;;;;;;5033825;28;20466;-73
2022/04/20 08:57:32;;;;;;;2.43;2.33;;;22.90;45.50;;;;;;5033961;28;20750;-72
2022/04/20 08:59:59;;;;;;;2.33;2.20;;;22.70;45.20;;;;;;5032272;28;20939;-73
2022/04/20 09:02:25;;;;;;;3.23;2.93;;;22.50;45.80;;;;;;5032029;28;20392;-72
2022/04/20 09:04:52;;;;;;;3.03;2.83;;;22.70;45.30;;;;;;5033271;28;20429;-74
2022/04/20 09:07:18;;;;;;;2.77;2.27;;;22.80;45.40;;;;;;5033630;28;20492;-73
2022/04/20 09:09:44;;;;;;;2.50;2.30;;;22.80;45.10;;;;;;5033731;28;20404;-71
2022/04/20 09:12:22;;;;;;;2.30;2.20;;;22.70;45.00;;;;;;5032628;28;20417;-70
2022/04/20 09:14:50;;;;;;;2.87;2.67;;;22.90;45.40;;;;;;5033105;28;20423;-72
2022/04/20 09:17:17;;;;;;;2.90;2.70;;;23.30;45.10;;;;;;5033584;28;20408;-71
2022/04/20 09:19:45;;;;;;;2.37;2.23;;;23.40;44.20;;;;;;5033276;28;20383;-72
2022/04/20 09:22:22;;;;;;;2.70;2.50;;;23.60;44.20;;;;;;5032826;28;20392;-74
2022/04/20 09:25:06;;;;;;;2.77;2.57;;;23.70;44.00;;;;;;5032573;28;20866;-73
2022/04/20 09:27:36;;;;;;;2.83;2.60;;;23.60;43.80;;;;;;5033174;28;20722;-70
2022/04/20 09:30:04;;;;;;;2.23;2.03;;;23.70;43.90;;;;;;5033772;28;20723;-73
2022/04/20 09:32:37;;;;;;;2.67;2.47;;;23.70;43.50;;;;;;5032690;28;20417;-72
2022/04/20 09:35:09;;;;;;;2.60;2.50;;;23.50;43.50;;;;;;5032610;28;20431;-71
2022/04/20 09:37:36;;;;;;;2.90;2.50;;;23.20;43.80;;;;;;5033178;28;20878;-72
2022/04/20 09:40:05;;;;;;;2.27;2.17;;;23.30;43.00;;;;;;5033146;28;20397;-71
2022/04/20 09:42:33;;;;;;;3.17;2.50;;;22.90;43.10;;;;;;5032800;28;20395;-73
2022/04/20 09:45:07;;;;;;;2.23;2.10;;;22.70;43.30;;;;;;5032702;28;20421;-72
2022/04/20 09:50:24;;;;;;;2.40;2.00;;;22.80;43.30;;;;;;5032434;28;20830;-73
2022/04/20 09:52:54;;;;;;;2.40;2.20;;;23.20;43.70;;;;;;5032568;28;20937;-72
2022/04/20 09:55:31;;;;;;;2.33;2.13;;;23.30;43.70;;;;;;5032705;28;20471;-72
2022/04/20 09:58:19;;;;;;;2.10;2.00;;;23.70;42.10;;;;;;5033185;28;20396;-74
2022/04/20 10:00:46;;;;;;;2.60;2.33;;;24.20;41.90;;;;;;5033604;28;20490;-70
2022/04/20 10:03:29;;;;;;;2.53;2.43;;;24.40;41.80;;;;;;5032190;28;20415;-71
2022/04/20 10:05:56;;;;;;;2.83;2.63;;;24.60;41.10;;;;;;5032783;28;20404;-73
2022/04/20 10:08:23;;;;;;;2.40;2.30;;;24.30;40.70;;;;;;5032936;28;20423;-71
2022/04/20 10:10:50;;;;;;;2.63;2.53;;;24.00;41.10;;;;;;5033039;28;20379;-73
2022/04/20 10:13:16;;;;;;;1.73;1.70;;;23.80;41.70;;;;;;5030933;28;20433;-73
2022/04/20 10:18:29;;;;;;;2.53;2.33;;;23.40;40.90;;;;;;5033309;28;20430;-73
2022/04/20 10:21:02;;;;;;;2.13;2.00;;;23.20;41.40;;;;;;5032818;28;20372;-70
2022/04/20 10:23:32;;;;;;;1.90;1.80;;;22.80;40.00;;;;;;5035182;28;20738;-71
2022/04/20 10:25:59;;;;;;;2.53;2.27;;;22.30;40.80;;;;;;5036417;28;20443;-73
2022/04/20 10:28:34;;;;;;;1.67;1.57;;;22.20;40.10;;;;;;5036818;28;20381;-74
2022/04/20 10:31:09;;;;;;;2.70;2.50;;;22.00;40.80;;;;;;5036695;28;20385;-73
2022/04/20 10:33:38;;;;;;;1.90;1.80;;;21.90;41.40;;;;;;5036101;28;20392;-70
2022/04/20 10:36:11;;;;;;;1.73;1.63;;;22.00;40.70;;;;;;5036242;28;20835;-75
2022/04/20 10:38:38;;;;;;;2.43;1.90;;;21.70;40.70;;;;;;5036755;28;20492;-72
2022/04/20 10:41:18;;;;;;;2.20;2.00;;;21.60;40.80;;;;;;5036248;28;20759;-72
2022/04/20 10:43:45;;;;;;;1.67;1.57;;;21.50;40.90;;;;;;5036256;28;20413;-72
2022/04/20 10:46:18;;;;;;;1.90;1.80;;;21.30;40.60;;;;;;5036016;28;20440;-72
2022/04/20 10:48:52;;;;;;;2.70;2.50;;;21.10;40.90;;;;;;5036445;28;20448;-70
2022/04/20 10:51:22;;;;;;;2.17;1.97;;;21.00;41.80;;;;;;5036655;28;20491;-70
2022/04/20 10:53:49;;;;;;;2.60;2.40;;;21.10;42.00;;;;;;5035910;28;20445;-69
2022/04/20 10:56:17;;;;;;;3.77;2.10;;;21.00;41.50;;;;;;5036396;28;20429;-73
2022/04/20 10:59:15;;;;;;;1.83;1.73;;;20.70;42.20;;;;;;5035874;28;20420;-71
2022/04/20 11:02:01;;;;;;;2.00;1.80;;;20.20;42.00;;;;;;5024148;28;20417;-72
2022/04/20 11:04:42;;;;;;;1.87;1.77;;;19.90;41.50;;;;;;5035684;28;20436;-72
2022/04/20 11:07:07;;;;;;;2.30;2.10;;;19.70;41.60;;;;;;5035930;28;20394;-71
2022/04/20 11:09:42;;;;;;;1.83;1.73;;;19.20;42.10;;;;;;5035943;28;20410;-71
2022/04/20 11:21:15;;;;;;;2.00;1.83;;;16.20;45.60;;;;;;5036226;28;20418;-72
2022/04/20 11:24:07;;;;;;;1.67;1.57;;;15.80;46.60;;;;;;5034427;28;20908;-71
2022/04/20 11:26:40;;;;;;;1.53;1.50;;;15.50;46.00;;;;;;5035957;28;20516;-71
2022/04/20 11:29:16;;;;;;;1.77;1.67;;;15.30;46.80;;;;;;5035832;28;20423;-70
2022/04/20 11:31:51;;;;;;;1.60;1.50;;;15.20;47.00;;;;;;5036128;28;20407;-70
2022/04/20 11:34:20;;;;;;;2.50;2.27;;;15.10;47.20;;;;;;5034801;28;20452;-71
2022/04/20 11:36:47;;;;;;;1.70;1.60;;;14.90;46.40;;;;;;5035934;28;20877;-73
2022/04/20 11:39:15;;;;;;;2.60;2.33;;;14.80;47.30;;;;;;5035708;28;20416;-72
2022/04/20 11:41:51;;;;;;;2.43;2.23;;;14.70;47.90;;;;;;5035782;28;20400;-72
2022/04/20 11:44:34;;;;;;;2.67;2.47;;;14.60;47.90;;;;;;5035222;28;20554;-70
2022/04/20 11:47:07;;;;;;;3.40;2.67;;;14.60;49.60;;;;;;5035550;28;20404;-70
2022/04/20 11:49:36;;;;;;;2.27;2.07;;;14.60;48.30;;;;;;5035383;28;20474;-71
2022/04/20 11:52:06;;;;;;;1.90;1.80;;;14.60;47.70;;;;;;5035215;28;20441;-70
2022/04/20 11:54:33;;;;;;;2.27;2.07;;;14.60;48.30;;;;;;5033601;28;20517;-71
2022/04/20 11:56:59;;;;;;;1.80;1.70;;;14.60;47.80;;;;;;5035347;28;20427;-73
2022/04/20 11:59:25;;;;;;;3.37;2.50;;;14.50;47.90;;;;;;5036724;28;20412;-69
2022/04/20 12:01:51;;;;;;;2.67;2.47;;;14.50;47.70;;;;;;5036817;28;20408;-71
2022/04/20 12:04:22;;;;;;;1.27;1.20;;;14.50;48.80;;;;;;5034728;28;20449;-70
2022/04/20 12:06:52;;;;;;;2.20;2.00;;;14.60;49.30;;;;;;5034855;28;20452;-71
2022/04/20 12:09:26;;;;;;;1.33;1.30;;;14.60;48.70;;;;;;5035151;28;20420;-70
2022/04/20 12:11:59;;;;;;;2.33;2.20;;;14.60;48.60;;;;;;5035639;28;20407;-73
2022/04/20 12:14:32;;;;;;;2.57;2.37;;;14.60;47.20;;;;;;5034720;28;20451;-71
2022/04/20 12:17:03;;;;;;;3.23;2.30;;;14.60;47.20;;;;;;5034664;28;20460;-70
2022/04/20 12:19:30;;;;;;;1.60;1.50;;;14.60;46.80;;;;;;5035077;28;20411;-71
2022/04/20 12:22:04;;;;;;;2.83;1.83;;;14.50;46.90;;;;;;5035066;28;20509;-71
2022/04/20 12:24:31;;;;;;;2.83;1.77;;;14.50;47.90;;;;;;5034601;28;20411;-73
2022/04/20 12:26:58;;;;;;;3.50;1.80;;;14.50;48.10;;;;;;5034326;28;20435;-73
2022/04/20 12:29:32;;;;;;;1.90;1.80;;;14.50;48.50;;;;;;5034577;28;20427;-71
2022/04/20 12:31:57;;;;;;;2.27;2.07;;;14.60;48.70;;;;;;5034858;28;20415;-69
2022/04/20 12:34:25;;;;;;;1.40;1.30;;;14.70;49.80;;;;;;5034184;28;20954;-72
2022/04/20 12:37:13;;;;;;;2.03;1.83;;;14.70;49.00;;;;;;5034134;28;20199;-70
2022/04/20 12:39:42;;;;;;;2.07;1.97;;;14.70;49.10;;;;;;5034582;28;20486;-71
2022/04/20 12:42:12;;;;;;;3.33;2.97;;;14.80;48.70;;;;;;5034351;28;20468;-72
2022/04/20 12:44:52;;;;;;;2.33;2.00;;;14.80;48.40;;;;;;5034064;28;20477;-70
2022/04/20 12:47:18;;;;;;;1.53;1.43;;;14.90;47.60;;;;;;5032794;28;20426;-72
2022/04/20 12:50:11;;;;;;;1.87;1.77;;;14.80;47.70;;;;;;5034342;28;20489;-70
2022/04/20 12:52:37;;;;;;;1.80;1.70;;;14.80;48.30;;;;;;5034181;28;20473;-73
2022/04/20 12:55:13;;;;;;;1.60;1.50;;;14.80;48.70;;;;;;5033582;28;20460;-67
2022/04/20 13:03:34;;;;;;;2.00;1.90;;;15.00;48.20;;;;;;5033691;28;20442;-70
2022/04/20 13:06:01;;;;;;;1.80;1.70;;;15.00;48.00;;;;;;5033992;28;20448;-71
2022/04/20 13:08:27;;;;;;;2.10;1.90;;;15.00;48.30;;;;;;5033552;28;20420;-71
2022/04/20 13:10:52;;;;;;;1.57;1.47;;;15.10;47.60;;;;;;5034112;28;20408;-72
2022/04/20 13:13:26;;;;;;;2.03;1.80;;;15.10;47.90;;;;;;5033530;28;20266;-71
2022/04/20 13:15:52;;;;;;;1.73;1.63;;;15.20;47.40;;;;;;5033671;28;20440;-70
2022/04/20 13:18:18;;;;;;;1.60;1.50;;;15.20;47.30;;;;;;5033375;28;20967;-71
2022/04/20 13:20:43;;;;;;;1.83;1.73;;;15.20;46.80;;;;;;5033618;28;20483;-71
2022/04/20 13:23:09;;;;;;;1.80;1.70;;;15.20;47.00;;;;;;5033271;28;20532;-71
2022/04/20 13:28:19;;;;;;;3.07;1.83;;;15.20;47.40;;;;;;5033276;28;20192;-71
2022/04/20 13:30:46;;;;;;;2.23;2.03;;;15.20;47.30;;;;;;5033664;28;20759;-71
2022/04/20 13:33:14;;;;;;;1.77;1.63;;;15.20;46.60;;;;;;5033056;28;20179;-71
2022/04/20 13:35:44;;;;;;;1.77;1.67;;;15.20;46.60;;;;;;5033496;28;20456;-71
2022/04/20 13:38:10;;;;;;;1.70;1.60;;;15.20;47.30;;;;;;5033358;28;20503;-71